createdAt,value
2022-10-13T00:00:50.949Z,101329.94
2022-10-13T00:03:18.009Z,101329.31
2022-10-13T00:05:48.124Z,101316.03
2022-10-13T00:08:19.910Z,101305.59
2022-10-13T00:10:48.837Z,101291.66
2022-10-13T00:13:16.535Z,101299.81
2022-10-13T00:15:46.264Z,101302.81
2022-10-13T00:18:13.508Z,101305.81
2022-10-13T00:20:49.163Z,101301.66
2022-10-13T00:23:16.682Z,101293.91
2022-10-13T00:25:45.777Z,101299.38
2022-10-13T00:28:13.693Z,101304.84
2022-10-13T00:30:41.307Z,101308.34
2022-10-13T00:33:08.542Z,101309.34
2022-10-13T00:35:41.241Z,101309.53
2022-10-13T00:38:08.322Z,101309.53
2022-10-13T00:40:42.662Z,101308.50
2022-10-13T00:43:48.505Z,101291.59
2022-10-13T00:46:16.306Z,101293.41
2022-10-13T00:48:44.555Z,101298.72
2022-10-13T00:51:14.875Z,101310.16
2022-10-13T00:53:44.208Z,101307.69
2022-10-13T00:56:14.197Z,101306.88
2022-10-13T00:58:41.682Z,101302.56
2022-10-13T01:01:08.849Z,101308.03
2022-10-13T01:03:36.659Z,101314.19
2022-10-13T01:06:05.933Z,101307.03
2022-10-13T01:08:33.806Z,101308.88
2022-10-13T01:11:36.384Z,101303.56
2022-10-13T01:14:27.002Z,101303.72
2022-10-13T01:16:56.709Z,101306.38
2022-10-13T01:19:52.455Z,101302.91
2022-10-13T01:22:37.255Z,101295.13
2022-10-13T01:25:17.781Z,101297.78
2022-10-13T01:28:02.671Z,101281.88
2022-10-13T01:30:36.590Z,101288.00
2022-10-13T01:33:12.357Z,101281.03
2022-10-13T01:35:42.071Z,101272.25
2022-10-13T01:38:33.696Z,101276.72
2022-10-13T01:41:33.944Z,101275.91
2022-10-13T01:44:16.517Z,101269.94
2022-10-13T01:46:46.030Z,101269.94
2022-10-13T01:49:16.738Z,101261.97
2022-10-13T01:51:45.718Z,101262.16
2022-10-13T01:54:12.500Z,101264.97
2022-10-13T01:56:39.256Z,101257.03
2022-10-13T01:59:15.079Z,101257.84
2022-10-13T02:02:15.657Z,101261.50
2022-10-13T02:05:03.242Z,101261.66
2022-10-13T02:07:49.739Z,101265.16
2022-10-13T02:10:34.583Z,101271.28
2022-10-13T02:13:06.233Z,101266.97
2022-10-13T02:15:42.714Z,101269.63
2022-10-13T02:18:13.146Z,101265.16
2022-10-13T02:20:42.473Z,101267.63
2022-10-13T02:23:13.030Z,101259.66
2022-10-13T02:25:40.920Z,101267.47
2022-10-13T02:28:09.462Z,101260.50
2022-10-13T02:30:39.571Z,101263.97
2022-10-13T02:33:06.720Z,101269.28
2022-10-13T02:35:34.413Z,101270.13
2022-10-13T02:38:01.232Z,101275.44
2022-10-13T02:40:28.795Z,101277.25
2022-10-13T02:42:55.582Z,101277.25
2022-10-13T02:45:22.599Z,101271.94
2022-10-13T02:47:49.474Z,101262.16
2022-10-13T02:50:16.303Z,101264.81
2022-10-13T02:52:43.065Z,101257.03
2022-10-13T02:55:10.225Z,101254.72
2022-10-13T02:57:37.100Z,101254.72
2022-10-13T03:00:05.935Z,101252.25
2022-10-13T03:02:32.958Z,101246.09
2022-10-13T03:04:59.773Z,101248.94
2022-10-13T03:07:26.511Z,101246.28
2022-10-13T03:09:53.314Z,101244.66
2022-10-13T03:12:20.277Z,101242.78
2022-10-13T03:14:47.139Z,101243.63
2022-10-13T03:17:14.035Z,101233.84
2022-10-13T03:19:40.926Z,101230.19
2022-10-13T03:22:07.727Z,101233.66
2022-10-13T03:24:34.459Z,101223.88
2022-10-13T03:27:01.238Z,101218.41
2022-10-13T03:29:28.049Z,101230.66
2022-10-13T03:31:54.777Z,101229.81
2022-10-13T03:34:21.522Z,101229.81
2022-10-13T03:36:48.216Z,101207.81
2022-10-13T03:39:15.155Z,101217.59
2022-10-13T03:41:42.245Z,101209.97
2022-10-13T03:44:12.673Z,101215.47
2022-10-13T03:46:40.078Z,101216.63
2022-10-13T03:49:11.542Z,101212.31
2022-10-13T03:51:38.902Z,101209.66
2022-10-13T03:54:05.742Z,101214.97
2022-10-13T03:56:32.507Z,101212.16
2022-10-13T03:59:07.562Z,101213.97
2022-10-13T04:01:34.430Z,101202.38
2022-10-13T04:04:02.951Z,101206.84
2022-10-13T04:06:31.244Z,101195.25
2022-10-13T04:09:06.613Z,101196.22
2022-10-13T04:11:33.758Z,101203.53
2022-10-13T04:14:00.572Z,101209.88
2022-10-13T04:16:29.734Z,101192.91
2022-10-13T04:19:11.895Z,101188.81
2022-10-13T04:21:39.401Z,101193.28
2022-10-13T04:24:12.301Z,101189.81
2022-10-13T04:26:39.324Z,101182.69
2022-10-13T04:29:13.289Z,101185.63
2022-10-13T04:31:42.877Z,101184.00
2022-10-13T04:34:10.388Z,101184.16
2022-10-13T04:36:37.256Z,101174.56
2022-10-13T04:39:07.358Z,101169.25
2022-10-13T04:41:34.148Z,101155.16
2022-10-13T04:44:02.698Z,101151.69
2022-10-13T04:46:30.010Z,101149.22
2022-10-13T04:48:57.479Z,101145.53
2022-10-13T04:51:25.976Z,101140.44
2022-10-13T04:54:01.277Z,101132.47
2022-10-13T04:56:28.963Z,101127.19
2022-10-13T04:58:55.704Z,101119.41
2022-10-13T05:01:24.536Z,101120.38
2022-10-13T05:04:02.274Z,101125.69
2022-10-13T05:06:53.390Z,101127.53
2022-10-13T05:09:24.593Z,101131.81
2022-10-13T05:11:51.342Z,101130.00
2022-10-13T05:14:18.108Z,101124.53
2022-10-13T05:16:44.889Z,101124.16
2022-10-13T05:19:11.658Z,101125.00
2022-10-13T05:21:39.289Z,101132.13
2022-10-13T05:24:06.693Z,101135.97
2022-10-13T05:26:35.920Z,101130.47
2022-10-13T05:29:13.083Z,101134.94
2022-10-13T05:31:40.488Z,101139.91
2022-10-13T05:34:07.211Z,101135.44
2022-10-13T05:36:35.321Z,101132.94
2022-10-13T05:39:08.562Z,101135.44
2022-10-13T05:41:35.334Z,101136.44
2022-10-13T05:44:04.669Z,101136.25
2022-10-13T05:46:31.583Z,101139.75
2022-10-13T05:48:59.015Z,101144.84
2022-10-13T05:51:36.956Z,101147.38
2022-10-13T05:54:11.470Z,101159.63
2022-10-13T05:56:42.347Z,101156.97
2022-10-13T05:59:17.117Z,101152.50
2022-10-13T06:01:44.420Z,101162.13
2022-10-13T06:04:23.868Z,101162.13
2022-10-13T06:06:50.908Z,101160.09
2022-10-13T06:09:18.393Z,101157.28
2022-10-13T06:11:45.248Z,101159.09
2022-10-13T06:14:12.039Z,101163.22
2022-10-13T06:16:38.923Z,101157.91
2022-10-13T06:19:12.306Z,101163.22
2022-10-13T06:21:39.133Z,101163.03
2022-10-13T06:24:06.079Z,101161.38
2022-10-13T06:26:32.982Z,101161.38
2022-10-13T06:29:08.089Z,101158.72
2022-10-13T06:31:34.870Z,101168.50
2022-10-13T06:34:01.688Z,101153.44
2022-10-13T06:36:28.478Z,101146.50
2022-10-13T06:38:55.418Z,101152.59
2022-10-13T06:41:22.253Z,101144.00
2022-10-13T06:43:49.057Z,101143.19
2022-10-13T06:46:15.860Z,101138.88
2022-10-13T06:48:43.201Z,101133.56
2022-10-13T06:51:11.816Z,101133.72
2022-10-13T06:53:38.831Z,101128.25
2022-10-13T06:56:07.826Z,101129.47
2022-10-13T06:58:36.002Z,101135.59
2022-10-13T07:01:02.822Z,101129.47
2022-10-13T07:03:29.907Z,101135.75
2022-10-13T07:06:04.518Z,101129.75
2022-10-13T07:08:32.774Z,101132.59
2022-10-13T07:10:59.617Z,101134.25
2022-10-13T07:13:26.451Z,101135.06
2022-10-13T07:15:53.259Z,101135.94
2022-10-13T07:18:20.171Z,101128.94
2022-10-13T07:20:47.154Z,101140.22
2022-10-13T07:23:13.918Z,101136.59
2022-10-13T07:25:40.946Z,101139.25
2022-10-13T07:28:07.715Z,101138.41
2022-10-13T07:30:34.492Z,101137.41
2022-10-13T07:33:01.508Z,101138.41
2022-10-13T07:35:30.627Z,101141.88
2022-10-13T07:37:57.881Z,101147.00
2022-10-13T07:40:24.773Z,101148.03
2022-10-13T07:42:51.536Z,101146.38
2022-10-13T07:45:18.506Z,101155.78
2022-10-13T07:47:45.266Z,101150.47
2022-10-13T07:50:12.097Z,101158.28
2022-10-13T07:52:39.343Z,101160.75
2022-10-13T07:55:06.920Z,101149.94
2022-10-13T07:57:33.713Z,101152.25
2022-10-13T08:00:00.751Z,101157.41
2022-10-13T08:02:27.577Z,101150.25
2022-10-13T08:04:54.416Z,101158.19
2022-10-13T08:07:21.385Z,101159.84
2022-10-13T08:09:48.375Z,101153.56
2022-10-13T08:12:15.327Z,101153.38
2022-10-13T08:14:42.612Z,101150.38
2022-10-13T08:17:09.659Z,101144.88
2022-10-13T08:19:36.489Z,101153.31
2022-10-13T08:22:05.543Z,101156.41
2022-10-13T08:24:35.958Z,101159.72
2022-10-13T08:27:02.727Z,101163.88
2022-10-13T08:29:29.645Z,101166.16
2022-10-13T08:31:56.659Z,101165.16
2022-10-13T08:34:25.013Z,101161.50
2022-10-13T08:36:54.781Z,101166.63
2022-10-13T08:39:22.775Z,101162.13
2022-10-13T08:41:50.195Z,101159.47
2022-10-13T08:47:42.014Z,101162.78
2022-10-13T08:50:25.313Z,101160.47
2022-10-13T08:52:58.113Z,101156.19
2022-10-13T08:55:37.761Z,101151.88
2022-10-13T08:58:15.197Z,101149.56
2022-10-13T09:00:42.646Z,101151.41
2022-10-13T09:03:23.126Z,101152.22
2022-10-13T09:06:00.666Z,101147.75
2022-10-13T09:08:34.381Z,101147.13
2022-10-13T09:11:03.085Z,101142.81
2022-10-13T09:13:29.930Z,101139.69
2022-10-13T09:15:58.314Z,101133.72
2022-10-13T09:18:31.908Z,101132.06
2022-10-13T09:21:19.631Z,101140.22
2022-10-13T09:23:46.822Z,101130.97
2022-10-13T09:26:38.017Z,101140.13
2022-10-13T09:29:11.401Z,101133.16
2022-10-13T09:31:38.664Z,101132.16
2022-10-13T09:34:20.535Z,101138.28
2022-10-13T09:37:02.241Z,101142.94
2022-10-13T09:39:30.834Z,101141.94
2022-10-13T09:42:22.001Z,101143.09
2022-10-13T09:45:14.783Z,101149.25
2022-10-13T09:47:49.007Z,101155.25
2022-10-13T09:50:22.463Z,101158.09
2022-10-13T09:52:49.551Z,101154.97
2022-10-13T09:55:32.618Z,101152.34
2022-10-13T09:58:06.009Z,101149.22
2022-10-13T10:00:33.405Z,101147.56
2022-10-13T10:03:15.895Z,101142.44
2022-10-13T10:05:51.465Z,101143.63
2022-10-13T10:09:05.256Z,101140.16
2022-10-13T10:11:41.094Z,101145.78
2022-10-13T10:14:26.605Z,101145.78
2022-10-13T10:17:02.614Z,101142.13
2022-10-13T10:19:35.335Z,101148.09
2022-10-13T10:22:17.160Z,101148.72
2022-10-13T10:25:01.526Z,101159.34
2022-10-13T10:27:28.293Z,101154.22
2022-10-13T10:30:02.631Z,101160.53
2022-10-13T10:32:53.320Z,101157.72
2022-10-13T10:35:32.287Z,101176.28
2022-10-13T10:38:14.873Z,101180.75
2022-10-13T10:41:06.265Z,101186.69
2022-10-13T10:43:48.668Z,101193.47
2022-10-13T10:46:23.328Z,101173.94
2022-10-13T10:48:55.405Z,101173.94
2022-10-13T10:51:28.407Z,101180.22
2022-10-13T10:54:10.204Z,101180.03
2022-10-13T10:56:44.876Z,101181.06
2022-10-13T10:59:26.624Z,101181.50
2022-10-13T11:02:08.738Z,101178.69
2022-10-13T11:04:47.658Z,101176.53
2022-10-13T11:07:23.547Z,101172.06
2022-10-13T11:09:53.177Z,101173.34
2022-10-13T11:12:20.218Z,101171.69
2022-10-13T11:14:47.170Z,101169.25
2022-10-13T11:17:34.374Z,101162.75
2022-10-13T11:20:01.132Z,101156.81
2022-10-13T11:22:31.834Z,101152.50
2022-10-13T11:25:22.103Z,101155.97
2022-10-13T11:27:48.907Z,101157.44
2022-10-13T11:30:52.256Z,101163.22
2022-10-13T11:33:38.728Z,101153.56
2022-10-13T11:36:42.930Z,101142.56
2022-10-13T11:39:28.402Z,101137.75
2022-10-13T11:42:21.526Z,101129.41
2022-10-13T11:45:18.817Z,101132.72
2022-10-13T11:48:11.456Z,101133.84
2022-10-13T11:50:55.686Z,101129.00
2022-10-13T11:53:33.134Z,101132.94
2022-10-13T11:56:03.759Z,101131.22
2022-10-13T11:58:32.450Z,101137.97
2022-10-13T12:01:13.100Z,101135.63
2022-10-13T12:03:43.647Z,101128.31
2022-10-13T12:06:35.780Z,101130.59
2022-10-13T12:09:21.714Z,101125.56
2022-10-13T12:12:00.220Z,101122.56
2022-10-13T12:17:31.273Z,101126.31
2022-10-13T12:20:00.615Z,101119.63
2022-10-13T12:22:29.484Z,101119.91
2022-10-13T12:25:00.590Z,101106.25
2022-10-13T12:27:32.667Z,101107.25
2022-10-13T12:30:03.113Z,101104.59
2022-10-13T12:32:32.425Z,101096.44
2022-10-13T12:35:20.401Z,101102.59
2022-10-13T12:37:48.248Z,101106.06
2022-10-13T12:40:25.682Z,101107.53
2022-10-13T12:42:52.816Z,101099.53
2022-10-13T12:45:22.887Z,101103.03
2022-10-13T12:47:54.650Z,101105.34
2022-10-13T12:50:30.523Z,101093.06
2022-10-13T12:53:06.067Z,101092.06
2022-10-13T12:55:33.517Z,101088.75
2022-10-13T12:58:00.630Z,101097.72
2022-10-13T13:00:35.493Z,101102.03
2022-10-13T13:03:05.344Z,101099.19
2022-10-13T13:05:35.197Z,101099.38
2022-10-13T13:08:04.130Z,101090.56
2022-10-13T13:10:31.480Z,101088.94
2022-10-13T13:13:14.489Z,101083.63
2022-10-13T13:15:41.687Z,101073.00
2022-10-13T13:18:29.322Z,101068.22
2022-10-13T13:20:56.497Z,101067.41
2022-10-13T13:23:23.898Z,101072.09
2022-10-13T13:26:13.910Z,101061.25
2022-10-13T13:28:54.336Z,101067.59
2022-10-13T13:31:23.368Z,101064.13
2022-10-13T13:33:50.311Z,101060.66
2022-10-13T13:36:21.629Z,101052.28
2022-10-13T13:38:49.096Z,101055.44
2022-10-13T13:41:17.171Z,101051.38
2022-10-13T13:43:44.044Z,101042.22
2022-10-13T13:46:23.566Z,101046.97
2022-10-13T13:48:51.038Z,101047.91
2022-10-13T13:51:18.223Z,101051.00
2022-10-13T13:53:45.204Z,101041.66
2022-10-13T13:56:20.493Z,101042.72
2022-10-13T13:58:47.626Z,101038.72
2022-10-13T14:01:14.782Z,101033.00
2022-10-13T14:03:42.172Z,101033.25
2022-10-13T14:06:09.391Z,101031.88
2022-10-13T14:08:42.590Z,101030.47
2022-10-13T14:11:10.283Z,101030.13
2022-10-13T14:13:37.174Z,101026.25
2022-10-13T14:16:04.578Z,101018.09
2022-10-13T14:18:32.051Z,101019.75
2022-10-13T14:20:59.099Z,101022.56
2022-10-13T14:23:25.929Z,101023.41
2022-10-13T14:25:52.668Z,101009.09
2022-10-13T14:28:19.480Z,101004.59
2022-10-13T14:30:46.299Z,101006.06
2022-10-13T14:33:13.083Z,101008.53
2022-10-13T14:35:39.834Z,100997.06
2022-10-13T14:38:06.608Z,101003.38
2022-10-13T14:40:33.347Z,101002.19
2022-10-13T14:43:00.071Z,101009.16
2022-10-13T14:45:26.836Z,101012.44
2022-10-13T14:47:53.885Z,101003.88
2022-10-13T14:50:20.742Z,100992.25
2022-10-13T14:52:47.466Z,100990.22
2022-10-13T14:55:14.317Z,100992.31
2022-10-13T14:57:41.038Z,100995.78
2022-10-13T15:00:08.462Z,100998.06
2022-10-13T15:02:35.200Z,100997.88
2022-10-13T15:05:01.990Z,100995.00
2022-10-13T15:07:28.774Z,100990.31
2022-10-13T15:10:10.716Z,100986.66
2022-10-13T15:12:37.621Z,100978.69
2022-10-13T15:15:05.064Z,100986.00
2022-10-13T15:17:33.413Z,100991.97
2022-10-13T15:20:00.710Z,100984.00
2022-10-13T15:22:27.571Z,100988.31
2022-10-13T15:24:54.335Z,100983.81
2022-10-13T15:27:21.186Z,100991.59
2022-10-13T15:29:47.934Z,100988.75
2022-10-13T15:32:18.597Z,100992.22
2022-10-13T15:34:46.166Z,100987.72
2022-10-13T15:37:13.482Z,100987.72
2022-10-13T15:39:40.381Z,100993.66
2022-10-13T15:42:07.207Z,101000.63
2022-10-13T15:44:51.305Z,100997.97
2022-10-13T15:47:20.767Z,101000.63
2022-10-13T15:49:47.495Z,101001.47
2022-10-13T15:52:14.248Z,100988.16
2022-10-13T15:54:41.123Z,100998.78
2022-10-13T15:57:08.167Z,100992.66
2022-10-13T15:59:35.017Z,100994.31
2022-10-13T16:02:01.732Z,100994.50
2022-10-13T16:04:29.759Z,100991.22
2022-10-13T16:06:59.381Z,100996.53
2022-10-13T16:09:26.197Z,101002.03
2022-10-13T16:11:54.438Z,101006.53
2022-10-13T16:14:21.414Z,101007.34
2022-10-13T16:16:48.162Z,100993.63
2022-10-13T16:19:15.270Z,101004.28
2022-10-13T16:21:42.249Z,100997.66
2022-10-13T16:24:09.036Z,101001.53
2022-10-13T16:26:35.789Z,101004.38
2022-10-13T16:29:07.021Z,101006.44
2022-10-13T16:31:33.756Z,101001.47
2022-10-13T16:34:00.586Z,101005.38
2022-10-13T16:36:27.356Z,101007.38
2022-10-13T16:38:55.106Z,101010.44
2022-10-13T16:41:22.266Z,101008.13
2022-10-13T16:43:49.220Z,101007.69
2022-10-13T16:46:18.426Z,101007.06
2022-10-13T16:48:46.333Z,101003.78
2022-10-13T16:51:16.379Z,101000.47
2022-10-13T16:53:43.413Z,100998.81
2022-10-13T16:56:10.411Z,100999.88
2022-10-13T16:58:37.198Z,100996.56
2022-10-13T17:01:09.630Z,100989.81
2022-10-13T17:03:37.684Z,101007.59
2022-10-13T17:06:05.420Z,100999.97
2022-10-13T17:08:32.766Z,101007.34
2022-10-13T17:11:00.465Z,101011.00
2022-10-13T17:13:27.293Z,101017.50
2022-10-13T17:15:55.883Z,101026.69
2022-10-13T17:18:23.324Z,101019.91
2022-10-13T17:21:01.198Z,101027.25
2022-10-13T17:23:29.351Z,101020.09
2022-10-13T17:26:00.675Z,101022.94
2022-10-13T17:28:27.536Z,101015.97
2022-10-13T17:31:02.638Z,101023.13
2022-10-13T17:33:32.796Z,101026.78
2022-10-13T17:36:04.228Z,101017.19
2022-10-13T17:38:31.575Z,101028.00
2022-10-13T17:41:03.615Z,101036.97
2022-10-13T17:43:31.125Z,101031.84
2022-10-13T17:46:35.627Z,101038.97
2022-10-13T17:49:12.562Z,101044.31
2022-10-13T17:51:41.216Z,101040.63
2022-10-13T17:54:14.429Z,101052.91
2022-10-13T17:56:42.412Z,101064.38
2022-10-13T17:59:10.104Z,101058.88
2022-10-13T18:01:36.957Z,101059.72
2022-10-13T18:04:11.364Z,101061.34
2022-10-13T18:06:40.778Z,101065.66
2022-10-13T18:09:14.448Z,101065.66
2022-10-13T18:11:47.066Z,101066.47
2022-10-13T18:14:17.182Z,101060.31
2022-10-13T18:16:44.190Z,101069.97
2022-10-13T18:19:12.408Z,101063.81
2022-10-13T18:21:39.142Z,101054.19
2022-10-13T18:24:06.226Z,101058.69
2022-10-13T18:26:35.331Z,101063.00
2022-10-13T18:29:08.160Z,101063.16
2022-10-13T18:31:36.361Z,101060.72
2022-10-13T18:34:12.861Z,101061.91
2022-10-13T18:36:47.283Z,101056.13
2022-10-13T18:39:16.918Z,101055.31
2022-10-13T18:41:44.051Z,101046.69
2022-10-13T18:44:11.344Z,101050.56
2022-10-13T18:46:39.390Z,101051.38
2022-10-13T18:49:14.520Z,101048.06
2022-10-13T18:51:42.032Z,101044.56
2022-10-13T18:54:10.149Z,101047.44
2022-10-13T18:56:37.151Z,101046.78
2022-10-13T18:59:07.931Z,101046.13
2022-10-13T19:01:35.972Z,101042.69
2022-10-13T19:04:03.243Z,101034.88
2022-10-13T19:06:32.356Z,101032.41
2022-10-13T19:09:09.789Z,101032.59
2022-10-13T19:11:37.146Z,101029.13
2022-10-13T19:14:05.892Z,101031.13
2022-10-13T19:16:36.569Z,101017.03
2022-10-13T19:19:13.358Z,101023.16
2022-10-13T19:21:40.519Z,101013.53
2022-10-13T19:24:08.259Z,101022.72
2022-10-13T19:26:36.200Z,101028.22
2022-10-13T19:29:10.302Z,101025.72
2022-10-13T19:31:39.387Z,101033.69
2022-10-13T19:34:06.239Z,101018.97
2022-10-13T19:36:37.797Z,101026.75
2022-10-13T19:39:22.329Z,101023.47
2022-10-13T19:41:50.838Z,101022.81
2022-10-13T19:44:19.740Z,101025.69
2022-10-13T19:46:47.745Z,101038.13
2022-10-13T19:49:16.875Z,101037.66
2022-10-13T19:51:43.859Z,101035.00
2022-10-13T19:54:11.455Z,101028.06
2022-10-13T19:56:38.605Z,101027.41
2022-10-13T19:59:07.610Z,101031.06
2022-10-13T20:01:43.678Z,101024.94
2022-10-13T20:04:11.197Z,101021.00
2022-10-13T20:06:38.603Z,101019.34
2022-10-13T20:09:10.749Z,101022.22
2022-10-13T20:11:37.500Z,101030.34
2022-10-13T20:14:04.462Z,101018.25
2022-10-13T20:16:31.383Z,101024.38
2022-10-13T20:19:00.653Z,101023.78
2022-10-13T20:21:28.392Z,101020.28
2022-10-13T20:23:56.211Z,101014.97
2022-10-13T20:26:23.700Z,101009.84
2022-10-13T20:28:51.781Z,101009.00
2022-10-13T20:31:21.431Z,101005.75
2022-10-13T20:33:49.856Z,101010.22
2022-10-13T20:36:18.404Z,101010.22
2022-10-13T20:38:45.346Z,101014.88
2022-10-13T20:41:26.180Z,101009.56
2022-10-13T20:43:54.880Z,101007.28
2022-10-13T20:46:22.283Z,101001.50
2022-10-13T20:51:36.412Z,101000.22
2022-10-13T20:54:03.152Z,101003.06
2022-10-13T20:56:30.007Z,100997.13
2022-10-13T20:59:06.882Z,100993.47
2022-10-13T21:01:34.696Z,100991.00
2022-10-13T21:04:01.629Z,100995.47
2022-10-13T21:06:28.512Z,100990.34
2022-10-13T21:08:55.516Z,101003.81
2022-10-13T21:11:23.684Z,101010.13
2022-10-13T21:13:51.897Z,101004.38
2022-10-13T21:16:23.275Z,101011.50
2022-10-13T21:18:51.804Z,101012.50
2022-10-13T21:21:21.321Z,101020.63
2022-10-13T21:23:52.799Z,101017.97
2022-10-13T21:26:22.162Z,101030.63
2022-10-13T21:28:50.290Z,101029.13
2022-10-13T21:31:18.863Z,101016.88
2022-10-13T21:33:45.915Z,101018.69
2022-10-13T21:36:15.228Z,101020.72
2022-10-13T21:38:43.302Z,101011.13
2022-10-13T21:41:12.827Z,101013.94
2022-10-13T21:43:39.786Z,101015.75
2022-10-13T21:46:09.670Z,101004.69
2022-10-13T21:48:37.096Z,101010.19
2022-10-13T21:51:12.533Z,101019.78
2022-10-13T21:53:39.410Z,101015.31
2022-10-13T21:56:07.384Z,101009.84
2022-10-13T21:58:35.414Z,101016.13
2022-10-13T22:01:02.934Z,101024.28
2022-10-13T22:03:30.117Z,101028.75
2022-10-13T22:05:56.972Z,101029.78
2022-10-13T22:08:37.623Z,101021.16
2022-10-13T22:11:06.453Z,101015.84
2022-10-13T22:13:33.341Z,101014.19
2022-10-13T22:16:19.058Z,101002.78
2022-10-13T22:18:46.462Z,100997.47
2022-10-13T22:21:17.476Z,101006.41
2022-10-13T22:23:45.042Z,101006.41
2022-10-13T22:26:12.761Z,101020.50
2022-10-13T22:28:39.934Z,101014.38
2022-10-13T22:31:09.878Z,101014.19
2022-10-13T22:33:38.086Z,101002.78
2022-10-13T22:36:09.636Z,101005.41
2022-10-13T22:38:36.487Z,100994.81
2022-10-13T22:41:05.462Z,100996.84
2022-10-13T22:43:32.822Z,101001.31
2022-10-13T22:45:59.693Z,100995.34
2022-10-13T22:48:26.578Z,100997.16
2022-10-13T22:50:53.622Z,100992.69
2022-10-13T22:53:20.848Z,100987.53
2022-10-13T22:55:50.669Z,100992.84
2022-10-13T22:58:17.387Z,100996.69
2022-10-13T23:00:44.225Z,100998.69
2022-10-13T23:03:13.763Z,100997.03
2022-10-13T23:05:47.486Z,100989.09
2022-10-13T23:08:14.936Z,100985.81
2022-10-13T23:10:41.713Z,100985.81
2022-10-13T23:13:08.455Z,100983.50
2022-10-13T23:15:38.370Z,100991.66
2022-10-13T23:18:05.601Z,100993.66
2022-10-13T23:20:32.370Z,100986.88
2022-10-13T23:22:59.107Z,100987.72
2022-10-13T23:25:25.828Z,100981.59
2022-10-13T23:27:52.559Z,100983.59
2022-10-13T23:30:19.345Z,100976.63
2022-10-13T23:32:54.427Z,100985.78
2022-10-13T23:35:21.258Z,100977.81
2022-10-13T23:37:48.290Z,100967.00
2022-10-13T23:40:15.331Z,100973.34
2022-10-13T23:42:42.302Z,100966.56
2022-10-13T23:45:09.488Z,100978.00
2022-10-13T23:47:36.240Z,100979.00
2022-10-13T23:50:03.483Z,100981.84
2022-10-13T23:52:30.323Z,100974.88
2022-10-13T23:54:57.012Z,100965.28
2022-10-13T23:57:24.066Z,100953.84
2022-10-13T23:59:50.903Z,100961.97
